Cylinder, Iowa
Current Conditions -  °F | °C
As of 12:15 AM on Wednesday 28 Jan 2015 (Local Time) from KAXA Reporting Station
Haze Haze  
Wind Chill: 18°   Ceiling: 600
Heat Index: 30°   Visibility: 5mi
Dew Point: 30°   Wind: 17mph
Humidity: 100%   Direction: 140°SE
Pressure: 30.06"   Gusts: 24mph
Location:  43.09°N, 94.55°W
Report Text: KAXA 280615Z AUTO 14015G21KT 5SM BR OVC006 M01/M01 A3006 RMK AO2
Loading
Personal Weather Stations






























Interactive Weather Map New forecast layout! Learn more

10-Day Weather Forecast

Advertisements
Track Severe Weather on mobile